createdAt,value
2018-12-10T00:00:09.613Z,66.83
2018-12-10T00:02:38.239Z,66.73
2018-12-10T00:05:07.329Z,70.87
2018-12-10T00:07:35.945Z,74.07
2018-12-10T00:10:04.557Z,76.23
2018-12-10T00:12:33.131Z,77.93
2018-12-10T00:15:01.704Z,75.10
2018-12-10T00:17:30.283Z,69.63
2018-12-10T00:19:58.871Z,70.60
2018-12-10T00:22:27.472Z,61.47
2018-12-10T00:24:56.320Z,63.70
2018-12-10T00:27:24.933Z,63.00
2018-12-10T00:29:53.556Z,64.37
2018-12-10T00:32:22.114Z,57.97
2018-12-10T00:34:50.702Z,53.43
2018-12-10T00:37:19.335Z,59.90
2018-12-10T00:39:48.080Z,63.83
2018-12-10T00:42:18.491Z,60.80
2018-12-10T00:44:47.089Z,55.30
2018-12-10T00:47:15.714Z,55.27
2018-12-10T00:49:44.290Z,56.27
2018-12-10T00:52:12.878Z,58.37
2018-12-10T00:54:41.499Z,50.63
2018-12-10T00:57:10.048Z,50.83
2018-12-10T00:59:38.791Z,43.63
2018-12-10T01:02:07.432Z,49.93
2018-12-10T01:04:36.057Z,45.13
2018-12-10T01:07:04.678Z,46.30
2018-12-10T01:09:33.299Z,45.20
2018-12-10T01:12:01.889Z,48.67
2018-12-10T01:14:30.650Z,48.60
2018-12-10T01:16:59.202Z,44.80
2018-12-10T01:19:27.801Z,49.03
2018-12-10T01:21:56.416Z,44.87
2018-12-10T01:24:25.074Z,49.77
2018-12-10T01:26:53.715Z,43.67
2018-12-10T01:29:22.270Z,45.33
2018-12-10T01:31:50.832Z,44.33
2018-12-10T01:34:19.452Z,45.53
2018-12-10T01:36:48.080Z,49.90
2018-12-10T01:39:16.679Z,46.00
2018-12-10T01:41:45.327Z,46.53
2018-12-10T01:44:13.913Z,42.00
2018-12-10T01:46:42.955Z,48.00
2018-12-10T01:49:11.491Z,45.53
2018-12-10T01:51:40.081Z,48.20
2018-12-10T01:54:08.848Z,48.40
2018-12-10T01:56:37.430Z,45.83
2018-12-10T01:59:06.232Z,45.50
2018-12-10T02:01:34.906Z,44.53
2018-12-10T02:04:03.570Z,45.63
2018-12-10T02:06:32.197Z,42.67
2018-12-10T02:09:00.814Z,48.20
2018-12-10T02:11:29.409Z,45.67
2018-12-10T02:13:58.040Z,47.07
2018-12-10T02:16:26.976Z,42.93
2018-12-10T02:18:55.638Z,43.03
2018-12-10T02:21:24.265Z,41.53
2018-12-10T02:23:52.911Z,46.10
2018-12-10T02:26:21.509Z,40.43
2018-12-10T02:28:55.300Z,46.43
2018-12-10T02:31:23.877Z,45.07
2018-12-10T02:33:52.492Z,41.97
2018-12-10T02:36:21.114Z,40.47
2018-12-10T02:38:49.722Z,50.03
2018-12-10T02:41:18.985Z,46.37
2018-12-10T02:43:47.585Z,42.57
2018-12-10T02:46:16.195Z,44.40
2018-12-10T02:48:44.760Z,44.73
2018-12-10T02:51:13.453Z,43.77
2018-12-10T02:53:42.028Z,42.07
2018-12-10T02:56:10.908Z,45.07
2018-12-10T02:58:39.498Z,41.23
2018-12-10T03:01:08.177Z,45.60
2018-12-10T03:03:36.783Z,46.70
2018-12-10T03:06:05.414Z,42.70
2018-12-10T03:08:34.071Z,38.50
2018-12-10T03:11:02.723Z,39.67
2018-12-10T03:13:31.299Z,43.90
2018-12-10T03:16:00.010Z,40.83
2018-12-10T03:18:28.864Z,41.60
2018-12-10T03:20:57.450Z,38.23
2018-12-10T03:23:26.027Z,45.07
2018-12-10T03:25:54.636Z,40.37
2018-12-10T03:28:23.254Z,50.40
2018-12-10T03:30:51.855Z,46.10
2018-12-10T03:33:20.446Z,46.43
2018-12-10T03:35:49.017Z,47.70
2018-12-10T03:38:17.611Z,43.30
2018-12-10T03:40:46.259Z,43.10
2018-12-10T03:43:14.851Z,43.30
2018-12-10T03:45:43.413Z,42.07
2018-12-10T03:48:11.973Z,45.67
2018-12-10T03:50:40.582Z,51.43
2018-12-10T03:53:09.172Z,48.40
2018-12-10T03:55:37.775Z,45.17
2018-12-10T03:58:06.346Z,46.90
2018-12-10T04:00:34.902Z,48.83
2018-12-10T04:03:03.527Z,46.03
2018-12-10T04:05:32.180Z,47.37
2018-12-10T04:08:00.788Z,51.00
2018-12-10T04:10:29.364Z,48.57
2018-12-10T04:12:57.966Z,50.20
2018-12-10T04:15:26.692Z,49.93
2018-12-10T04:17:55.270Z,52.97
2018-12-10T04:20:23.895Z,51.80
2018-12-10T04:22:52.447Z,46.37
2018-12-10T04:25:21.016Z,47.33
2018-12-10T04:27:49.737Z,45.03
2018-12-10T04:30:18.365Z,41.00
2018-12-10T04:32:46.951Z,42.53
2018-12-10T04:35:15.511Z,42.93
2018-12-10T04:37:44.109Z,41.83
2018-12-10T04:40:12.714Z,44.20
2018-12-10T04:42:41.297Z,41.73
2018-12-10T04:45:09.919Z,42.83
2018-12-10T04:47:38.475Z,43.47
2018-12-10T04:50:07.171Z,43.10
2018-12-10T04:52:35.735Z,53.27
2018-12-10T04:55:04.796Z,55.97
2018-12-10T04:57:33.398Z,55.13
2018-12-10T05:00:01.987Z,54.63
2018-12-10T05:02:30.672Z,52.80
2018-12-10T05:04:59.216Z,54.20
2018-12-10T05:07:27.857Z,51.13
2018-12-10T05:09:56.438Z,53.90
2018-12-10T05:12:25.074Z,51.27
2018-12-10T05:14:53.711Z,54.97
2018-12-10T05:17:22.326Z,51.33
2018-12-10T05:19:50.897Z,53.60
2018-12-10T05:22:19.501Z,50.50
2018-12-10T05:24:48.109Z,50.87
2018-12-10T05:27:16.698Z,52.77
2018-12-10T05:29:45.321Z,49.53
2018-12-10T05:32:14.180Z,55.40
2018-12-10T05:34:42.798Z,51.27
2018-12-10T05:37:11.377Z,56.63
2018-12-10T05:39:39.978Z,59.63
2018-12-10T05:42:08.612Z,52.77
2018-12-10T05:44:37.192Z,54.13
2018-12-10T05:47:05.872Z,54.20
2018-12-10T05:49:34.463Z,58.03
2018-12-10T05:52:03.125Z,57.50
2018-12-10T05:54:31.728Z,56.80
2018-12-10T05:57:03.293Z,58.23
2018-12-10T05:59:31.905Z,59.80
2018-12-10T06:02:00.790Z,58.83
2018-12-10T06:04:29.417Z,57.77
2018-12-10T06:06:58.024Z,47.87
2018-12-10T06:09:26.685Z,56.33
2018-12-10T06:11:55.301Z,56.27
2018-12-10T06:14:23.928Z,52.97
2018-12-10T06:16:52.534Z,60.20
2018-12-10T06:19:21.159Z,61.60
2018-12-10T06:21:49.779Z,68.37
2018-12-10T06:24:18.419Z,67.60
2018-12-10T06:26:47.024Z,74.50
2018-12-10T06:29:15.700Z,72.10
2018-12-10T06:31:44.314Z,71.67
2018-12-10T06:34:12.919Z,74.83
2018-12-10T06:36:41.567Z,71.33
2018-12-10T06:39:10.180Z,76.10
2018-12-10T06:41:38.758Z,73.43
2018-12-10T06:44:07.368Z,73.67
2018-12-10T06:46:35.979Z,89.10
2018-12-10T06:49:04.608Z,76.50
2018-12-10T06:51:33.199Z,75.30
2018-12-10T06:54:01.817Z,74.80
2018-12-10T06:56:30.533Z,71.33
2018-12-10T06:58:59.158Z,68.97
2018-12-10T07:01:27.734Z,74.67
2018-12-10T07:03:56.347Z,68.77
2018-12-10T07:06:26.181Z,67.77
2018-12-10T07:08:54.751Z,72.47
2018-12-10T07:11:23.381Z,66.83
2018-12-10T07:13:51.949Z,74.30
2018-12-10T07:16:20.579Z,72.17
2018-12-10T07:18:49.187Z,69.20
2018-12-10T07:21:18.001Z,70.83
2018-12-10T07:23:46.663Z,76.23
2018-12-10T07:26:15.281Z,80.33
2018-12-10T07:28:43.901Z,72.80
2018-12-10T07:31:12.535Z,72.13
2018-12-10T07:33:41.142Z,79.47
2018-12-10T07:36:09.760Z,74.77
2018-12-10T07:38:38.405Z,74.40
2018-12-10T07:41:07.182Z,79.17
2018-12-10T07:43:36.144Z,78.40
2018-12-10T07:46:04.747Z,76.53
2018-12-10T07:48:33.283Z,77.47
2018-12-10T07:51:01.932Z,77.03
2018-12-10T07:53:31.234Z,74.33
2018-12-10T07:56:00.190Z,62.70
2018-12-10T07:58:28.829Z,65.27
2018-12-10T08:00:57.354Z,60.97
2018-12-10T08:03:26.816Z,52.10
2018-12-10T08:05:57.551Z,43.30
2018-12-10T08:08:26.493Z,43.67
2018-12-10T08:10:55.875Z,37.40
2018-12-10T08:13:24.532Z,42.83
2018-12-10T08:15:53.200Z,45.03
2018-12-10T08:18:23.006Z,39.60
2018-12-10T08:20:51.637Z,38.57
2018-12-10T08:23:20.227Z,43.73
2018-12-10T08:25:48.894Z,41.43
2018-12-10T08:28:17.548Z,51.03
2018-12-10T08:30:46.400Z,37.23
2018-12-10T08:33:15.029Z,39.87
2018-12-10T08:35:43.650Z,37.60
2018-12-10T08:38:12.202Z,34.83
2018-12-10T08:40:40.784Z,36.57
2018-12-10T08:43:09.401Z,32.97
2018-12-10T08:45:40.948Z,32.27
2018-12-10T08:48:09.555Z,33.40
2018-12-10T08:50:38.186Z,37.20
2018-12-10T08:53:06.968Z,41.47
2018-12-10T08:55:35.616Z,39.13
2018-12-10T08:58:04.165Z,37.87
2018-12-10T09:00:35.311Z,37.83
2018-12-10T09:03:04.309Z,34.47
2018-12-10T09:05:32.956Z,36.10
2018-12-10T09:08:01.704Z,34.70
2018-12-10T09:10:31.285Z,36.50
2018-12-10T09:13:00.438Z,31.97
2018-12-10T09:15:29.578Z,35.87
2018-12-10T09:17:58.399Z,36.77
2018-12-10T09:20:27.169Z,35.57
2018-12-10T09:22:56.898Z,38.57
2018-12-10T09:25:26.394Z,37.23
2018-12-10T09:27:55.294Z,37.10
2018-12-10T09:30:24.177Z,31.57
2018-12-10T09:32:53.296Z,30.40
2018-12-10T09:35:21.966Z,27.80
2018-12-10T09:37:51.035Z,28.40
2018-12-10T09:40:21.019Z,30.37
2018-12-10T09:42:50.503Z,30.80
2018-12-10T09:45:21.639Z,33.57
2018-12-10T09:47:50.336Z,24.73
2018-12-10T09:50:20.566Z,27.90
2018-12-10T09:52:49.839Z,29.83
2018-12-10T09:55:18.569Z,31.90
2018-12-10T09:57:47.209Z,32.50
2018-12-10T10:00:15.812Z,32.97
2018-12-10T10:02:44.398Z,23.07
2018-12-10T10:05:13.208Z,24.07
2018-12-10T10:07:41.893Z,20.80
2018-12-10T10:10:10.664Z,20.27
2018-12-10T10:12:39.329Z,23.67
2018-12-10T10:15:08.102Z,23.23
2018-12-10T10:17:36.777Z,22.23
2018-12-10T10:20:05.719Z,19.20
2018-12-10T10:22:34.724Z,22.30
2018-12-10T10:25:03.359Z,20.57
2018-12-10T10:27:31.991Z,27.13
2018-12-10T10:30:00.599Z,24.97
2018-12-10T10:32:29.221Z,29.70
2018-12-10T10:34:57.869Z,23.13
2018-12-10T10:37:26.450Z,21.43
2018-12-10T10:39:55.074Z,21.80
2018-12-10T10:42:23.744Z,21.53
2018-12-10T10:44:52.349Z,25.30
2018-12-10T10:47:21.414Z,21.47
2018-12-10T10:49:50.094Z,18.53
2018-12-10T10:52:18.786Z,17.30
2018-12-10T10:54:47.401Z,22.50
2018-12-10T10:57:16.006Z,20.90
2018-12-10T10:59:44.628Z,22.83
2018-12-10T11:02:20.372Z,16.83
2018-12-10T11:04:49.392Z,17.80
2018-12-10T11:07:18.098Z,17.23
2018-12-10T11:09:46.721Z,19.57
2018-12-10T11:12:15.332Z,19.53
2018-12-10T11:14:44.177Z,20.47
2018-12-10T11:17:13.184Z,20.70
2018-12-10T11:19:41.908Z,23.90
2018-12-10T11:22:11.066Z,25.43
2018-12-10T11:24:40.066Z,23.30
2018-12-10T11:27:08.776Z,23.63
2018-12-10T11:29:37.369Z,25.93
2018-12-10T11:32:06.439Z,24.60
2018-12-10T11:34:35.243Z,22.00
2018-12-10T11:37:03.967Z,22.17
2018-12-10T11:39:33.449Z,19.67
2018-12-10T11:42:02.226Z,15.97
2018-12-10T11:44:30.915Z,16.27
2018-12-10T11:46:59.771Z,17.43
2018-12-10T11:49:28.468Z,16.10
2018-12-10T11:51:57.240Z,18.87
2018-12-10T11:54:25.943Z,19.03
2018-12-10T11:56:54.834Z,21.90
2018-12-10T11:59:23.863Z,20.50
2018-12-10T12:01:52.648Z,19.63
2018-12-10T12:04:21.339Z,20.53
2018-12-10T12:06:50.061Z,21.60
2018-12-10T12:09:18.867Z,19.67
2018-12-10T12:11:47.632Z,18.10
2018-12-10T12:14:16.366Z,17.30
2018-12-10T12:16:45.093Z,17.57
2018-12-10T12:19:14.599Z,18.93
2018-12-10T12:21:43.516Z,22.60
2018-12-10T12:24:12.270Z,23.23
2018-12-10T12:26:41.008Z,19.47
2018-12-10T12:29:11.270Z,21.10
2018-12-10T12:31:41.197Z,22.83
2018-12-10T12:34:09.793Z,19.37
2018-12-10T12:36:38.781Z,21.90
2018-12-10T12:39:07.839Z,19.40
2018-12-10T12:41:37.004Z,18.20
2018-12-10T12:44:05.840Z,21.20
2018-12-10T12:46:34.821Z,20.50
2018-12-10T12:49:03.718Z,21.30
2018-12-10T12:51:32.676Z,21.03
2018-12-10T12:54:01.843Z,21.37
2018-12-10T12:56:30.604Z,23.67
2018-12-10T12:59:04.457Z,22.03
2018-12-10T13:01:33.337Z,25.60
2018-12-10T13:04:02.309Z,23.33
2018-12-10T13:06:31.201Z,20.87
2018-12-10T13:08:59.793Z,21.97
2018-12-10T13:11:28.498Z,22.90
2018-12-10T13:13:57.487Z,25.87
2018-12-10T13:16:26.580Z,23.53
2018-12-10T13:18:55.352Z,21.90
2018-12-10T13:21:24.094Z,24.77
2018-12-10T13:23:53.052Z,22.43
2018-12-10T13:26:22.445Z,25.57
2018-12-10T13:28:51.410Z,25.93
2018-12-10T13:31:20.344Z,23.27
2018-12-10T13:33:49.199Z,23.50
2018-12-10T13:36:18.087Z,25.00
2018-12-10T13:38:46.791Z,23.47
2018-12-10T13:41:15.843Z,28.93
2018-12-10T13:43:45.500Z,26.57
2018-12-10T13:46:15.476Z,35.43
2018-12-10T13:48:44.930Z,37.77
2018-12-10T13:51:13.859Z,36.57
2018-12-10T13:53:42.652Z,34.37
2018-12-10T13:56:11.432Z,31.97
2018-12-10T13:58:40.385Z,27.80
2018-12-10T14:01:09.456Z,26.63
2018-12-10T14:03:38.248Z,22.80
2018-12-10T14:06:07.237Z,28.57
2018-12-10T14:08:36.120Z,26.33
2018-12-10T14:11:04.965Z,24.40
2018-12-10T14:13:33.729Z,25.27
2018-12-10T14:16:02.517Z,22.80
2018-12-10T14:18:31.348Z,26.27
2018-12-10T14:21:00.288Z,23.17
2018-12-10T14:23:29.019Z,24.87
2018-12-10T14:25:58.125Z,26.37
2018-12-10T14:28:26.944Z,27.87
2018-12-10T14:30:56.187Z,30.07
2018-12-10T14:33:25.362Z,30.13
2018-12-10T14:35:54.279Z,25.27
2018-12-10T14:38:22.967Z,25.63
2018-12-10T14:40:51.609Z,22.93
2018-12-10T14:43:20.463Z,21.30
2018-12-10T14:45:49.415Z,20.07
2018-12-10T14:48:18.123Z,20.10
2018-12-10T14:50:46.834Z,16.87
2018-12-10T14:53:15.596Z,18.10
2018-12-10T14:55:44.200Z,18.67
2018-12-10T14:58:12.859Z,19.33
2018-12-10T15:00:41.501Z,14.03
2018-12-10T15:03:10.334Z,18.13
2018-12-10T15:05:38.984Z,19.70
2018-12-10T15:08:08.001Z,18.87
2018-12-10T15:10:37.159Z,20.27
2018-12-10T15:13:06.206Z,20.37
2018-12-10T15:15:35.107Z,25.20
2018-12-10T15:18:03.911Z,22.87
2018-12-10T15:20:32.823Z,25.07
2018-12-10T15:23:03.279Z,25.23
2018-12-10T15:25:32.612Z,20.63
2018-12-10T15:28:01.160Z,20.63
2018-12-10T15:30:30.616Z,18.57
2018-12-10T15:32:59.217Z,16.70
2018-12-10T15:35:28.779Z,17.37
2018-12-10T15:37:57.725Z,19.70
2018-12-10T15:40:27.514Z,17.70
2018-12-10T15:42:56.134Z,18.43
2018-12-10T15:45:24.733Z,17.23
2018-12-10T15:47:53.444Z,17.77
2018-12-10T15:50:22.057Z,18.27
2018-12-10T15:52:51.183Z,18.33
2018-12-10T15:55:19.963Z,18.83
2018-12-10T15:57:48.881Z,18.53
2018-12-10T16:00:17.632Z,14.87
2018-12-10T16:02:46.289Z,17.70
2018-12-10T16:05:14.896Z,17.63
2018-12-10T16:07:43.743Z,16.70
2018-12-10T16:10:12.814Z,17.73
2018-12-10T16:12:41.414Z,17.60
2018-12-10T16:15:10.092Z,20.47
2018-12-10T16:17:38.660Z,18.20
2018-12-10T16:20:09.206Z,18.40
2018-12-10T16:22:37.842Z,20.03
2018-12-10T16:25:06.408Z,20.70
2018-12-10T16:27:38.296Z,18.03
2018-12-10T16:30:15.262Z,16.83
2018-12-10T16:32:43.810Z,16.93
2018-12-10T16:35:12.855Z,16.00
2018-12-10T16:37:41.482Z,14.73
2018-12-10T16:40:10.189Z,15.30
2018-12-10T16:42:38.739Z,16.57
2018-12-10T16:45:08.054Z,17.53
2018-12-10T16:47:39.990Z,18.43
2018-12-10T16:50:09.535Z,20.03
2018-12-10T16:52:41.173Z,18.43
2018-12-10T16:55:09.834Z,19.17
2018-12-10T16:57:38.400Z,20.10
2018-12-10T17:00:14.502Z,21.67
2018-12-10T17:02:43.075Z,20.67
2018-12-10T17:05:11.696Z,23.97
2018-12-10T17:07:40.903Z,26.00
2018-12-10T17:10:10.892Z,20.97
2018-12-10T17:12:39.528Z,17.40
2018-12-10T17:15:10.220Z,18.17
2018-12-10T17:17:38.747Z,19.13
2018-12-10T17:20:07.980Z,19.83
2018-12-10T17:22:36.645Z,17.70
2018-12-10T17:25:06.469Z,17.53
2018-12-10T17:27:35.357Z,17.90
2018-12-10T17:30:12.382Z,18.43
2018-12-10T17:32:41.763Z,17.20
2018-12-10T17:35:10.368Z,16.60
2018-12-10T17:37:38.992Z,15.80
2018-12-10T17:40:08.450Z,18.40
2018-12-10T17:42:37.131Z,15.37
2018-12-10T17:45:07.885Z,14.93
2018-12-10T17:47:36.639Z,14.60
2018-12-10T17:50:08.732Z,13.67
2018-12-10T17:52:37.371Z,13.60
2018-12-10T17:55:07.288Z,12.27
2018-12-10T17:57:35.939Z,12.27
2018-12-10T18:00:13.838Z,11.93
2018-12-10T18:02:43.006Z,11.97
2018-12-10T18:05:12.157Z,14.50
2018-12-10T18:07:41.427Z,16.77
2018-12-10T18:10:10.277Z,14.33
2018-12-10T18:12:38.866Z,16.53
2018-12-10T18:15:08.090Z,14.73
2018-12-10T18:17:36.762Z,15.10
2018-12-10T18:20:07.505Z,14.37
2018-12-10T18:22:36.708Z,13.20
2018-12-10T18:25:05.550Z,11.77
2018-12-10T18:27:34.144Z,14.97
2018-12-10T18:30:02.773Z,13.50
2018-12-10T18:32:32.543Z,14.83
2018-12-10T18:35:01.622Z,13.43
2018-12-10T18:37:30.288Z,12.37
2018-12-10T18:39:59.284Z,14.43
2018-12-10T18:42:27.826Z,14.67
2018-12-10T18:44:56.734Z,13.30
2018-12-10T18:47:25.908Z,12.40
2018-12-10T18:49:54.483Z,10.43
2018-12-10T18:52:23.052Z,10.47
2018-12-10T18:54:51.843Z,14.83
2018-12-10T18:57:20.542Z,11.20
2018-12-10T18:59:49.624Z,10.47
2018-12-10T19:02:18.196Z,14.20
2018-12-10T19:04:46.804Z,10.60
2018-12-10T19:07:16.016Z,9.87
2018-12-10T19:12:32.980Z,12.13
2018-12-10T19:15:11.473Z,10.63
2018-12-10T19:17:43.128Z,14.30
2018-12-10T19:20:13.704Z,12.47
2018-12-10T19:22:43.166Z,12.77
2018-12-10T19:25:11.740Z,13.60
2018-12-10T19:27:40.334Z,11.77
2018-12-10T19:30:12.190Z,12.17
2018-12-10T19:32:40.793Z,10.97
2018-12-10T19:35:09.530Z,12.77
2018-12-10T19:37:38.115Z,11.80
2018-12-10T19:40:08.046Z,13.73
2018-12-10T19:42:36.956Z,11.13
2018-12-10T19:45:06.665Z,12.40
2018-12-10T19:47:35.404Z,9.37
2018-12-10T19:50:04.228Z,9.83
2018-12-10T19:52:32.855Z,12.97
2018-12-10T19:55:01.543Z,9.90
2018-12-10T19:57:30.134Z,10.97
2018-12-10T19:59:58.717Z,8.60
2018-12-10T20:02:27.448Z,10.93
2018-12-10T20:04:56.041Z,11.00
2018-12-10T20:07:24.917Z,10.43
2018-12-10T20:09:53.490Z,11.13
2018-12-10T20:12:22.124Z,9.40
2018-12-10T20:14:50.718Z,10.00
2018-12-10T20:17:19.357Z,8.23
2018-12-10T20:19:47.893Z,9.00
2018-12-10T20:22:16.497Z,7.97
2018-12-10T20:24:45.824Z,9.23
2018-12-10T20:27:14.407Z,8.10
2018-12-10T20:29:43.109Z,7.73
2018-12-10T20:32:11.853Z,8.50
2018-12-10T20:34:40.578Z,8.80
2018-12-10T20:37:09.410Z,7.37
2018-12-10T20:39:37.983Z,9.97
2018-12-10T20:42:06.595Z,9.60
2018-12-10T20:44:35.202Z,7.37
2018-12-10T20:47:03.874Z,9.43
2018-12-10T20:49:32.453Z,8.17
2018-12-10T20:52:01.065Z,9.63
2018-12-10T20:54:30.129Z,8.77
2018-12-10T20:56:58.707Z,8.77
2018-12-10T20:59:27.215Z,6.43
2018-12-10T21:01:55.959Z,7.53
2018-12-10T21:04:24.567Z,6.80
2018-12-10T21:06:53.157Z,6.67
2018-12-10T21:09:21.850Z,7.50
2018-12-10T21:11:50.483Z,9.27
2018-12-10T21:14:19.125Z,8.07
2018-12-10T21:16:47.712Z,6.27
2018-12-10T21:19:16.305Z,7.03
2018-12-10T21:21:44.938Z,7.77
2018-12-10T21:24:13.577Z,5.00
2018-12-10T21:26:42.229Z,9.40
2018-12-10T21:29:10.818Z,4.30
2018-12-10T21:31:39.406Z,6.37
2018-12-10T21:34:08.103Z,6.13
2018-12-10T21:36:36.743Z,7.03
2018-12-10T21:39:07.421Z,10.30
2018-12-10T21:41:36.126Z,6.77
2018-12-10T21:44:05.211Z,5.87
2018-12-10T21:46:34.024Z,5.30
2018-12-10T21:49:02.853Z,6.23
2018-12-10T21:51:31.493Z,4.70
2018-12-10T21:54:00.091Z,9.43
2018-12-10T21:56:28.770Z,9.53
2018-12-10T21:58:57.450Z,5.07
2018-12-10T22:01:26.144Z,7.27
2018-12-10T22:03:54.831Z,6.30
2018-12-10T22:06:23.529Z,7.03
2018-12-10T22:08:52.162Z,8.70
2018-12-10T22:11:20.807Z,7.27
2018-12-10T22:13:49.357Z,5.60
2018-12-10T22:16:17.922Z,4.80
2018-12-10T22:18:46.503Z,4.77
2018-12-10T22:21:15.112Z,4.83
2018-12-10T22:23:43.845Z,5.60
2018-12-10T22:26:12.369Z,5.50
2018-12-10T22:28:40.991Z,5.33
2018-12-10T22:31:09.527Z,7.10
2018-12-10T22:33:38.175Z,4.30
2018-12-10T22:36:06.782Z,5.43
2018-12-10T22:38:35.668Z,6.77
2018-12-10T22:41:13.213Z,5.17
2018-12-10T22:43:41.855Z,4.80
2018-12-10T22:46:11.593Z,5.60
2018-12-10T22:48:40.244Z,5.33
2018-12-10T22:51:08.987Z,4.60
2018-12-10T22:53:37.601Z,6.40
2018-12-10T22:56:06.173Z,4.03
2018-12-10T22:58:34.941Z,5.03
2018-12-10T23:01:03.971Z,4.20
2018-12-10T23:03:32.864Z,4.73
2018-12-10T23:06:01.460Z,4.73
2018-12-10T23:08:30.094Z,4.90
2018-12-10T23:10:58.740Z,5.03
2018-12-10T23:13:27.416Z,7.93
2018-12-10T23:15:56.032Z,4.30
2018-12-10T23:18:24.625Z,6.70
2018-12-10T23:20:53.221Z,7.40
2018-12-10T23:23:21.892Z,6.37
2018-12-10T23:25:50.727Z,4.77
2018-12-10T23:28:19.422Z,5.33
2018-12-10T23:30:48.108Z,5.80
2018-12-10T23:33:16.922Z,5.27
2018-12-10T23:35:45.509Z,4.93
2018-12-10T23:38:14.153Z,5.83
2018-12-10T23:40:42.814Z,6.13
2018-12-10T23:43:16.502Z,4.70
2018-12-10T23:45:45.507Z,3.97
2018-12-10T23:48:14.102Z,4.77
2018-12-10T23:50:42.653Z,4.57
2018-12-10T23:53:11.295Z,7.13
2018-12-10T23:55:39.926Z,3.80
2018-12-10T23:58:08.600Z,4.40
